sensor_id;sensor_type;location;lat;lon;timestamp;pressure;altitude;pressure_sealevel;temperature;humidity
48095;BME280;33874;52.070;-0.516;2023-02-11T00:21:33;103143.95;;;7.48;85.26
48095;BME280;33874;52.070;-0.516;2023-02-11T00:48:12;103128.01;;;7.58;85.42
48095;BME280;33874;52.070;-0.516;2023-02-11T00:51:01;103125.66;;;7.59;85.42
48095;BME280;33874;52.070;-0.516;2023-02-11T00:53:40;103120.59;;;7.59;85.33
48095;BME280;33874;52.070;-0.516;2023-02-11T00:56:08;103115.48;;;7.61;85.35
48095;BME280;33874;52.070;-0.516;2023-02-11T00:58:37;103114.73;;;7.62;85.51
48095;BME280;33874;52.070;-0.516;2023-02-11T01:01:08;103122.42;;;7.62;85.40
48095;BME280;33874;52.070;-0.516;2023-02-11T01:53:11;103110.61;;;7.60;85.38
48095;BME280;33874;52.070;-0.516;2023-02-11T01:56:40;103109.08;;;7.59;85.42
48095;BME280;33874;52.070;-0.516;2023-02-11T02:07:48;103098.53;;;7.60;85.59
48095;BME280;33874;52.070;-0.516;2023-02-11T02:13:56;103099.85;;;7.57;85.66
48095;BME280;33874;52.070;-0.516;2023-02-11T02:42:34;103094.75;;;7.53;85.77
48095;BME280;33874;52.070;-0.516;2023-02-11T02:45:43;103094.08;;;7.52;85.69
48095;BME280;33874;52.070;-0.516;2023-02-11T04:09:49;103066.11;;;7.46;85.86
48095;BME280;33874;52.070;-0.516;2023-02-11T05:28:59;103110.00;;;7.52;85.41
48095;BME280;33874;52.070;-0.516;2023-02-11T06:06:12;103110.58;;;7.40;84.82
48095;BME280;33874;52.070;-0.516;2023-02-11T06:09:17;103117.79;;;7.29;84.77
48095;BME280;33874;52.070;-0.516;2023-02-11T06:11:49;103114.02;;;7.21;84.73
48095;BME280;33874;52.070;-0.516;2023-02-11T06:17:32;103112.88;;;7.08;84.99
48095;BME280;33874;52.070;-0.516;2023-02-11T06:34:54;103132.20;;;6.83;85.29
48095;BME280;33874;52.070;-0.516;2023-02-11T06:38:07;103138.91;;;6.81;85.46
48095;BME280;33874;52.070;-0.516;2023-02-11T06:40:46;103139.00;;;6.78;85.47
48095;BME280;33874;52.070;-0.516;2023-02-11T06:46:20;103139.21;;;6.71;85.35
48095;BME280;33874;52.070;-0.516;2023-02-11T06:52:49;103130.51;;;6.64;85.43
48095;BME280;33874;52.070;-0.516;2023-02-11T06:55:41;103137.03;;;6.62;85.42
48095;BME280;33874;52.070;-0.516;2023-02-11T06:58:31;103142.14;;;6.61;85.57
48095;BME280;33874;52.070;-0.516;2023-02-11T07:01:21;103142.52;;;6.60;85.77
48095;BME280;33874;52.070;-0.516;2023-02-11T07:13:13;103149.45;;;6.62;86.14
48095;BME280;33874;52.070;-0.516;2023-02-11T07:15:50;103149.60;;;6.62;86.03
48095;BME280;33874;52.070;-0.516;2023-02-11T07:18:24;103155.60;;;6.61;85.59
48095;BME280;33874;52.070;-0.516;2023-02-11T07:35:10;103190.48;;;6.57;86.07
48095;BME280;33874;52.070;-0.516;2023-02-11T07:38:19;103185.63;;;6.62;86.33
48095;BME280;33874;52.070;-0.516;2023-02-11T07:41:30;103181.45;;;6.67;86.48
48095;BME280;33874;52.070;-0.516;2023-02-11T07:44:30;103176.04;;;6.72;86.32
48095;BME280;33874;52.070;-0.516;2023-02-11T07:47:59;103177.77;;;6.79;86.43
48095;BME280;33874;52.070;-0.516;2023-02-11T07:50:41;103183.63;;;6.88;86.63
48095;BME280;33874;52.070;-0.516;2023-02-11T07:53:21;103191.24;;;6.96;86.63
48095;BME280;33874;52.070;-0.516;2023-02-11T07:55:53;103189.77;;;7.03;86.75
48095;BME280;33874;52.070;-0.516;2023-02-11T07:58:35;103188.73;;;7.09;86.64
48095;BME280;33874;52.070;-0.516;2023-02-11T08:01:15;103187.43;;;7.17;86.53
48095;BME280;33874;52.070;-0.516;2023-02-11T08:04:18;103186.19;;;7.23;86.18
48095;BME280;33874;52.070;-0.516;2023-02-11T08:07:50;103182.93;;;7.27;85.97
48095;BME280;33874;52.070;-0.516;2023-02-11T08:10:19;103184.41;;;7.30;85.80
48095;BME280;33874;52.070;-0.516;2023-02-11T08:15:42;103186.11;;;7.42;86.01
48095;BME280;33874;52.070;-0.516;2023-02-11T08:18:24;103186.86;;;7.45;85.62
48095;BME280;33874;52.070;-0.516;2023-02-11T08:21:25;103187.18;;;7.47;85.39
48095;BME280;33874;52.070;-0.516;2023-02-11T08:24:54;103190.98;;;7.53;85.43
48095;BME280;33874;52.070;-0.516;2023-02-11T08:27:27;103194.39;;;7.61;85.56
48095;BME280;33874;52.070;-0.516;2023-02-11T08:30:01;103193.17;;;7.66;85.40
48095;BME280;33874;52.070;-0.516;2023-02-11T08:33:22;103197.73;;;7.72;85.50
48095;BME280;33874;52.070;-0.516;2023-02-11T08:36:06;103201.27;;;7.81;85.42
48095;BME280;33874;52.070;-0.516;2023-02-11T08:38:58;103197.02;;;7.87;85.36
48095;BME280;33874;52.070;-0.516;2023-02-11T08:41:53;103199.23;;;7.94;85.48
48095;BME280;33874;52.070;-0.516;2023-02-11T08:44:29;103198.48;;;8.00;85.63
48095;BME280;33874;52.070;-0.516;2023-02-11T08:47:20;103201.17;;;8.08;85.83
48095;BME280;33874;52.070;-0.516;2023-02-11T08:49:50;103204.27;;;8.14;85.79
48095;BME280;33874;52.070;-0.516;2023-02-11T09:07:02;103226.40;;;8.48;85.10
48095;BME280;33874;52.070;-0.516;2023-02-11T09:13:55;103227.85;;;8.61;84.95
48095;BME280;33874;52.070;-0.516;2023-02-11T09:20:12;103215.45;;;8.74;84.47
48095;BME280;33874;52.070;-0.516;2023-02-11T09:30:19;103208.88;;;8.99;83.91
48095;BME280;33874;52.070;-0.516;2023-02-11T09:33:17;103209.64;;;9.07;83.74
48095;BME280;33874;52.070;-0.516;2023-02-11T09:53:05;103224.47;;;9.35;82.23
48095;BME280;33874;52.070;-0.516;2023-02-11T09:55:38;103219.95;;;9.43;82.31
48095;BME280;33874;52.070;-0.516;2023-02-11T09:58:14;103222.92;;;9.48;81.94
48095;BME280;33874;52.070;-0.516;2023-02-11T10:15:24;103226.06;;;9.86;80.30
48095;BME280;33874;52.070;-0.516;2023-02-11T10:18:21;103224.63;;;9.91;79.92
48095;BME280;33874;52.070;-0.516;2023-02-11T10:27:43;103213.76;;;10.02;78.94
48095;BME280;33874;52.070;-0.516;2023-02-11T10:47:46;103215.22;;;10.26;77.24
48095;BME280;33874;52.070;-0.516;2023-02-11T10:50:27;103224.19;;;10.26;77.25
48095;BME280;33874;52.070;-0.516;2023-02-11T10:53:28;103234.75;;;10.29;77.33
48095;BME280;33874;52.070;-0.516;2023-02-11T10:56:44;103237.00;;;10.38;77.29
48095;BME280;33874;52.070;-0.516;2023-02-11T11:02:20;103233.08;;;10.51;76.81
48095;BME280;33874;52.070;-0.516;2023-02-11T11:05:20;103233.31;;;10.50;76.27
48095;BME280;33874;52.070;-0.516;2023-02-11T11:07:56;103241.63;;;10.48;76.24
48095;BME280;33874;52.070;-0.516;2023-02-11T11:10:46;103247.17;;;10.47;76.16
48095;BME280;33874;52.070;-0.516;2023-02-11T11:16:14;103251.59;;;10.50;76.35
48095;BME280;33874;52.070;-0.516;2023-02-11T11:21:54;103254.87;;;10.59;75.99
48095;BME280;33874;52.070;-0.516;2023-02-11T11:34:53;103249.45;;;10.55;74.64
48095;BME280;33874;52.070;-0.516;2023-02-11T11:37:53;103248.95;;;10.58;74.62
48095;BME280;33874;52.070;-0.516;2023-02-11T11:40:26;103246.20;;;10.64;74.43
48095;BME280;33874;52.070;-0.516;2023-02-11T11:43:14;103249.54;;;10.69;74.14
48095;BME280;33874;52.070;-0.516;2023-02-11T11:45:58;103256.89;;;10.73;74.10
48095;BME280;33874;52.070;-0.516;2023-02-11T11:48:41;103256.37;;;10.76;73.89
48095;BME280;33874;52.070;-0.516;2023-02-11T11:51:16;103248.11;;;10.80;73.66
48095;BME280;33874;52.070;-0.516;2023-02-11T11:56:26;103250.98;;;10.83;73.30
48095;BME280;33874;52.070;-0.516;2023-02-11T11:59:00;103252.11;;;10.85;73.28
48095;BME280;33874;52.070;-0.516;2023-02-11T12:10:01;103238.73;;;10.85;71.71
48095;BME280;33874;52.070;-0.516;2023-02-11T12:28:30;103247.19;;;10.81;70.69
48095;BME280;33874;52.070;-0.516;2023-02-11T12:34:19;103241.19;;;10.81;70.52
48095;BME280;33874;52.070;-0.516;2023-02-11T12:37:21;103241.37;;;10.78;70.41
48095;BME280;33874;52.070;-0.516;2023-02-11T13:39:16;103215.13;;;11.41;67.19
48095;BME280;33874;52.070;-0.516;2023-02-11T13:44:38;103217.39;;;11.34;67.07
48095;BME280;33874;52.070;-0.516;2023-02-11T13:47:06;103220.41;;;11.30;66.82
48095;BME280;33874;52.070;-0.516;2023-02-11T13:49:43;103218.67;;;11.22;66.86
48095;BME280;33874;52.070;-0.516;2023-02-11T13:52:22;103217.16;;;11.21;67.11
48095;BME280;33874;52.070;-0.516;2023-02-11T13:55:19;103214.74;;;11.23;67.21
48095;BME280;33874;52.070;-0.516;2023-02-11T14:00:45;103213.36;;;11.34;67.62
48095;BME280;33874;52.070;-0.516;2023-02-11T14:03:22;103212.85;;;11.37;67.31
48095;BME280;33874;52.070;-0.516;2023-02-11T14:12:29;103218.59;;;11.31;66.85
48095;BME280;33874;52.070;-0.516;2023-02-11T14:17:55;103219.70;;;11.26;66.76
48095;BME280;33874;52.070;-0.516;2023-02-11T14:23:33;103215.48;;;11.15;66.44
48095;BME280;33874;52.070;-0.516;2023-02-11T14:28:52;103214.88;;;11.06;66.43
48095;BME280;33874;52.070;-0.516;2023-02-11T14:35:51;103214.23;;;10.98;66.55
48095;BME280;33874;52.070;-0.516;2023-02-11T14:38:51;103217.20;;;10.94;66.46
48095;BME280;33874;52.070;-0.516;2023-02-11T14:41:25;103219.39;;;10.89;66.45
48095;BME280;33874;52.070;-0.516;2023-02-11T14:43:59;103223.02;;;10.86;66.67
48095;BME280;33874;52.070;-0.516;2023-02-11T14:46:31;103219.73;;;10.85;66.70
48095;BME280;33874;52.070;-0.516;2023-02-11T14:49:04;103215.48;;;10.82;66.67
48095;BME280;33874;52.070;-0.516;2023-02-11T14:51:35;103212.91;;;10.80;66.55
48095;BME280;33874;52.070;-0.516;2023-02-11T14:54:11;103211.92;;;10.79;66.70
48095;BME280;33874;52.070;-0.516;2023-02-11T14:57:06;103217.83;;;10.81;66.90
48095;BME280;33874;52.070;-0.516;2023-02-11T14:59:36;103220.54;;;10.83;67.08
48095;BME280;33874;52.070;-0.516;2023-02-11T15:02:28;103222.70;;;10.86;67.12
48095;BME280;33874;52.070;-0.516;2023-02-11T15:05:21;103218.58;;;10.87;67.08
48095;BME280;33874;52.070;-0.516;2023-02-11T15:07:56;103215.75;;;10.84;66.80
48095;BME280;33874;52.070;-0.516;2023-02-11T15:10:30;103212.80;;;10.79;66.80
48095;BME280;33874;52.070;-0.516;2023-02-11T15:13:01;103214.45;;;10.74;66.82
48095;BME280;33874;52.070;-0.516;2023-02-11T15:15:31;103219.27;;;10.73;67.06
48095;BME280;33874;52.070;-0.516;2023-02-11T15:18:01;103217.17;;;10.72;67.10
48095;BME280;33874;52.070;-0.516;2023-02-11T15:20:31;103217.55;;;10.72;67.20
48095;BME280;33874;52.070;-0.516;2023-02-11T15:23:06;103216.55;;;10.70;67.24
48095;BME280;33874;52.070;-0.516;2023-02-11T15:25:42;103216.95;;;10.70;67.15
48095;BME280;33874;52.070;-0.516;2023-02-11T15:28:23;103216.73;;;10.66;67.07
48095;BME280;33874;52.070;-0.516;2023-02-11T15:31:04;103219.34;;;10.63;67.19
48095;BME280;33874;52.070;-0.516;2023-02-11T15:33:34;103220.88;;;10.60;67.19
48095;BME280;33874;52.070;-0.516;2023-02-11T15:36:02;103222.53;;;10.59;67.01
48095;BME280;33874;52.070;-0.516;2023-02-11T15:38:31;103219.46;;;10.56;67.24
48095;BME280;33874;52.070;-0.516;2023-02-11T15:41:02;103226.85;;;10.56;67.34
48095;BME280;33874;52.070;-0.516;2023-02-11T15:43:47;103230.10;;;10.55;67.33
48095;BME280;33874;52.070;-0.516;2023-02-11T15:46:19;103227.29;;;10.54;67.50
48095;BME280;33874;52.070;-0.516;2023-02-11T15:51:18;103224.52;;;10.50;67.39
48095;BME280;33874;52.070;-0.516;2023-02-11T15:53:54;103222.84;;;10.48;67.43
48095;BME280;33874;52.070;-0.516;2023-02-11T15:56:37;103218.85;;;10.47;67.50
48095;BME280;33874;52.070;-0.516;2023-02-11T15:59:21;103216.99;;;10.46;67.47
48095;BME280;33874;52.070;-0.516;2023-02-11T16:01:53;103213.70;;;10.41;67.16
48095;BME280;33874;52.070;-0.516;2023-02-11T16:04:24;103211.52;;;10.34;67.15
48095;BME280;33874;52.070;-0.516;2023-02-11T16:06:54;103215.65;;;10.28;67.11
48095;BME280;33874;52.070;-0.516;2023-02-11T16:09:31;103219.23;;;10.22;67.18
48095;BME280;33874;52.070;-0.516;2023-02-11T16:12:16;103223.46;;;10.18;67.18
48095;BME280;33874;52.070;-0.516;2023-02-11T16:14:49;103221.73;;;10.13;67.26
48095;BME280;33874;52.070;-0.516;2023-02-11T16:19:47;103227.16;;;10.05;67.41
48095;BME280;33874;52.070;-0.516;2023-02-11T16:22:29;103231.27;;;9.99;67.41
48095;BME280;33874;52.070;-0.516;2023-02-11T16:25:03;103228.15;;;9.95;67.35
48095;BME280;33874;52.070;-0.516;2023-02-11T16:27:40;103225.44;;;9.88;67.31
48095;BME280;33874;52.070;-0.516;2023-02-11T16:30:50;103228.24;;;9.84;67.41
48095;BME280;33874;52.070;-0.516;2023-02-11T16:33:18;103229.95;;;9.81;67.33
48095;BME280;33874;52.070;-0.516;2023-02-11T16:35:47;103231.80;;;9.79;67.56
48095;BME280;33874;52.070;-0.516;2023-02-11T16:38:16;103236.61;;;9.77;67.56
48095;BME280;33874;52.070;-0.516;2023-02-11T16:40:45;103241.13;;;9.74;67.62
48095;BME280;33874;52.070;-0.516;2023-02-11T16:43:18;103235.44;;;9.72;67.74
48095;BME280;33874;52.070;-0.516;2023-02-11T16:45:47;103231.98;;;9.70;67.76
48095;BME280;33874;52.070;-0.516;2023-02-11T16:48:16;103233.25;;;9.69;67.99
48095;BME280;33874;52.070;-0.516;2023-02-11T16:50:47;103239.78;;;9.69;67.91
48095;BME280;33874;52.070;-0.516;2023-02-11T16:53:24;103246.32;;;9.68;68.13
48095;BME280;33874;52.070;-0.516;2023-02-11T16:55:52;103247.92;;;9.68;68.15
48095;BME280;33874;52.070;-0.516;2023-02-11T16:58:20;103247.77;;;9.67;68.22
48095;BME280;33874;52.070;-0.516;2023-02-11T17:00:48;103247.00;;;9.64;68.10
48095;BME280;33874;52.070;-0.516;2023-02-11T17:03:22;103253.66;;;9.60;68.20
48095;BME280;33874;52.070;-0.516;2023-02-11T17:05:53;103262.55;;;9.57;68.29
48095;BME280;33874;52.070;-0.516;2023-02-11T17:08:22;103266.11;;;9.56;68.38
48095;BME280;33874;52.070;-0.516;2023-02-11T17:10:50;103265.60;;;9.55;68.52
48095;BME280;33874;52.070;-0.516;2023-02-11T17:13:19;103266.80;;;9.56;68.61
48095;BME280;33874;52.070;-0.516;2023-02-11T17:15:48;103272.20;;;9.57;68.83
48095;BME280;33874;52.070;-0.516;2023-02-11T17:18:16;103277.08;;;9.58;68.79
48095;BME280;33874;52.070;-0.516;2023-02-11T17:20:46;103277.27;;;9.58;68.79
48095;BME280;33874;52.070;-0.516;2023-02-11T17:23:15;103274.29;;;9.54;68.49
48095;BME280;33874;52.070;-0.516;2023-02-11T17:25:43;103273.26;;;9.48;68.41
48095;BME280;33874;52.070;-0.516;2023-02-11T17:28:11;103278.20;;;9.44;68.40
48095;BME280;33874;52.070;-0.516;2023-02-11T17:30:39;103280.23;;;9.41;68.59
48095;BME280;33874;52.070;-0.516;2023-02-11T17:33:10;103277.93;;;9.37;68.53
48095;BME280;33874;52.070;-0.516;2023-02-11T17:35:39;103281.80;;;9.32;68.63
48095;BME280;33874;52.070;-0.516;2023-02-11T17:38:07;103287.19;;;9.29;68.74
48095;BME280;33874;52.070;-0.516;2023-02-11T17:40:35;103288.35;;;9.26;68.84
48095;BME280;33874;52.070;-0.516;2023-02-11T17:43:03;103288.91;;;9.25;69.02
48095;BME280;33874;52.070;-0.516;2023-02-11T17:45:31;103287.36;;;9.25;69.02
48095;BME280;33874;52.070;-0.516;2023-02-11T17:47:59;103293.48;;;9.25;69.08
48095;BME280;33874;52.070;-0.516;2023-02-11T17:50:27;103298.93;;;9.25;69.03
48095;BME280;33874;52.070;-0.516;2023-02-11T17:52:56;103301.95;;;9.24;68.84
48095;BME280;33874;52.070;-0.516;2023-02-11T17:55:25;103305.20;;;9.22;68.80
48095;BME280;33874;52.070;-0.516;2023-02-11T17:57:53;103305.55;;;9.18;68.71
48095;BME280;33874;52.070;-0.516;2023-02-11T18:00:22;103310.54;;;9.15;68.83
48095;BME280;33874;52.070;-0.516;2023-02-11T18:02:50;103315.64;;;9.14;68.95
48095;BME280;33874;52.070;-0.516;2023-02-11T18:05:19;103315.00;;;9.13;69.08
48095;BME280;33874;52.070;-0.516;2023-02-11T18:07:47;103314.81;;;9.13;69.18
48095;BME280;33874;52.070;-0.516;2023-02-11T18:10:15;103314.15;;;9.13;69.17
48095;BME280;33874;52.070;-0.516;2023-02-11T18:12:46;103319.43;;;9.12;69.22
48095;BME280;33874;52.070;-0.516;2023-02-11T18:15:15;103315.61;;;9.11;69.37
48095;BME280;33874;52.070;-0.516;2023-02-11T18:17:43;103317.23;;;9.10;69.41
48095;BME280;33874;52.070;-0.516;2023-02-11T18:20:12;103320.09;;;9.08;69.23
48095;BME280;33874;52.070;-0.516;2023-02-11T18:22:40;103321.77;;;9.06;69.16
48095;BME280;33874;52.070;-0.516;2023-02-11T18:25:15;103318.83;;;9.04;69.32
48095;BME280;33874;52.070;-0.516;2023-02-11T18:27:43;103322.80;;;9.06;69.51
48095;BME280;33874;52.070;-0.516;2023-02-11T18:30:16;103321.07;;;9.06;69.52
48095;BME280;33874;52.070;-0.516;2023-02-11T18:32:45;103321.73;;;9.07;69.66
48095;BME280;33874;52.070;-0.516;2023-02-11T18:35:13;103325.20;;;9.08;69.65
48095;BME280;33874;52.070;-0.516;2023-02-11T18:37:42;103330.23;;;9.05;69.25
48095;BME280;33874;52.070;-0.516;2023-02-11T18:40:12;103328.33;;;8.99;69.19
48095;BME280;33874;52.070;-0.516;2023-02-11T18:42:41;103324.71;;;8.97;69.38
48095;BME280;33874;52.070;-0.516;2023-02-11T18:45:11;103326.83;;;8.97;69.51
48095;BME280;33874;52.070;-0.516;2023-02-11T18:47:40;103331.73;;;8.97;69.55
48095;BME280;33874;52.070;-0.516;2023-02-11T18:50:09;103334.92;;;8.96;69.54
48095;BME280;33874;52.070;-0.516;2023-02-11T18:52:38;103334.63;;;8.95;69.53
48095;BME280;33874;52.070;-0.516;2023-02-11T18:55:06;103329.94;;;8.93;69.49
48095;BME280;33874;52.070;-0.516;2023-02-11T18:57:35;103330.56;;;8.91;69.26
48095;BME280;33874;52.070;-0.516;2023-02-11T19:00:06;103337.02;;;8.87;69.33
48095;BME280;33874;52.070;-0.516;2023-02-11T19:02:34;103343.58;;;8.85;69.35
48095;BME280;33874;52.070;-0.516;2023-02-11T19:05:03;103349.11;;;8.83;69.25
48095;BME280;33874;52.070;-0.516;2023-02-11T19:07:33;103347.41;;;8.81;69.30
48095;BME280;33874;52.070;-0.516;2023-02-11T19:10:02;103347.02;;;8.81;69.53
48095;BME280;33874;52.070;-0.516;2023-02-11T19:12:30;103344.52;;;8.83;69.73
48095;BME280;33874;52.070;-0.516;2023-02-11T19:14:59;103341.69;;;8.84;69.85
48095;BME280;33874;52.070;-0.516;2023-02-11T19:17:27;103346.63;;;8.83;69.71
48095;BME280;33874;52.070;-0.516;2023-02-11T19:19:55;103351.14;;;8.80;69.74
48095;BME280;33874;52.070;-0.516;2023-02-11T19:22:23;103351.84;;;8.75;69.60
48095;BME280;33874;52.070;-0.516;2023-02-11T19:24:52;103340.00;;;8.72;69.64
48095;BME280;33874;52.070;-0.516;2023-02-11T19:27:21;103341.08;;;8.72;69.88
48095;BME280;33874;52.070;-0.516;2023-02-11T19:29:49;103344.23;;;8.72;70.15
48095;BME280;33874;52.070;-0.516;2023-02-11T19:32:17;103343.34;;;8.72;70.14
48095;BME280;33874;52.070;-0.516;2023-02-11T19:34:46;103344.32;;;8.75;70.25
48095;BME280;33874;52.070;-0.516;2023-02-11T19:37:14;103344.42;;;8.76;70.23
48095;BME280;33874;52.070;-0.516;2023-02-11T19:39:43;103343.48;;;8.78;70.35
48095;BME280;33874;52.070;-0.516;2023-02-11T19:42:11;103346.60;;;8.79;70.44
48095;BME280;33874;52.070;-0.516;2023-02-11T19:44:39;103346.48;;;8.78;70.07
48095;BME280;33874;52.070;-0.516;2023-02-11T19:47:07;103353.53;;;8.76;70.13
48095;BME280;33874;52.070;-0.516;2023-02-11T19:49:37;103355.98;;;8.76;70.27
48095;BME280;33874;52.070;-0.516;2023-02-11T19:52:05;103358.29;;;8.76;70.23
48095;BME280;33874;52.070;-0.516;2023-02-11T19:54:33;103358.48;;;8.75;70.20
48095;BME280;33874;52.070;-0.516;2023-02-11T19:57:01;103358.20;;;8.73;70.30
48095;BME280;33874;52.070;-0.516;2023-02-11T19:59:29;103361.58;;;8.72;70.30
48095;BME280;33874;52.070;-0.516;2023-02-11T20:01:57;103357.89;;;8.72;70.32
48095;BME280;33874;52.070;-0.516;2023-02-11T20:04:28;103356.48;;;8.72;70.49
48095;BME280;33874;52.070;-0.516;2023-02-11T20:06:58;103355.44;;;8.72;70.50
48095;BME280;33874;52.070;-0.516;2023-02-11T20:09:27;103356.47;;;8.73;70.61
48095;BME280;33874;52.070;-0.516;2023-02-11T20:11:57;103357.52;;;8.73;70.68
48095;BME280;33874;52.070;-0.516;2023-02-11T20:14:26;103351.34;;;8.74;70.66
48095;BME280;33874;52.070;-0.516;2023-02-11T20:16:54;103352.73;;;8.74;70.72
48095;BME280;33874;52.070;-0.516;2023-02-11T20:19:22;103355.16;;;8.75;70.67
48095;BME280;33874;52.070;-0.516;2023-02-11T20:21:52;103352.38;;;8.75;70.55
48095;BME280;33874;52.070;-0.516;2023-02-11T20:24:23;103352.83;;;8.72;70.23
48095;BME280;33874;52.070;-0.516;2023-02-11T20:26:52;103351.33;;;8.64;70.15
48095;BME280;33874;52.070;-0.516;2023-02-11T20:29:24;103354.93;;;8.62;70.33
48095;BME280;33874;52.070;-0.516;2023-02-11T20:31:52;103361.48;;;8.60;70.29
48095;BME280;33874;52.070;-0.516;2023-02-11T20:34:22;103361.47;;;8.60;70.43
48095;BME280;33874;52.070;-0.516;2023-02-11T20:36:52;103364.81;;;8.60;70.20
48095;BME280;33874;52.070;-0.516;2023-02-11T20:39:22;103361.95;;;8.57;70.26
48095;BME280;33874;52.070;-0.516;2023-02-11T20:41:51;103364.19;;;8.57;70.56
48095;BME280;33874;52.070;-0.516;2023-02-11T20:44:20;103362.42;;;8.58;70.56
48095;BME280;33874;52.070;-0.516;2023-02-11T20:46:50;103366.61;;;8.59;70.83
48095;BME280;33874;52.070;-0.516;2023-02-11T20:49:22;103365.89;;;8.59;70.79
48095;BME280;33874;52.070;-0.516;2023-02-11T20:51:50;103369.73;;;8.60;70.63
48095;BME280;33874;52.070;-0.516;2023-02-11T20:54:22;103373.42;;;8.59;70.55
48095;BME280;33874;52.070;-0.516;2023-02-11T20:56:53;103373.98;;;8.59;70.64
48095;BME280;33874;52.070;-0.516;2023-02-11T20:59:23;103369.67;;;8.56;70.59
48095;BME280;33874;52.070;-0.516;2023-02-11T21:01:53;103371.56;;;8.52;70.25
48095;BME280;33874;52.070;-0.516;2023-02-11T21:04:27;103368.20;;;8.43;70.05
48095;BME280;33874;52.070;-0.516;2023-02-11T21:06:59;103373.61;;;8.38;70.14
48095;BME280;33874;52.070;-0.516;2023-02-11T21:09:31;103376.09;;;8.37;70.42
48095;BME280;33874;52.070;-0.516;2023-02-11T21:12:00;103377.15;;;8.37;70.68
48095;BME280;33874;52.070;-0.516;2023-02-11T21:14:29;103372.75;;;8.38;70.45
48095;BME280;33874;52.070;-0.516;2023-02-11T21:16:57;103372.95;;;8.37;70.50
48095;BME280;33874;52.070;-0.516;2023-02-11T21:19:25;103384.20;;;8.35;70.37
48095;BME280;33874;52.070;-0.516;2023-02-11T21:21:53;103384.80;;;8.33;70.60
48095;BME280;33874;52.070;-0.516;2023-02-11T21:24:24;103385.27;;;8.34;70.89
48095;BME280;33874;52.070;-0.516;2023-02-11T21:26:52;103385.21;;;8.37;70.99
48095;BME280;33874;52.070;-0.516;2023-02-11T21:29:20;103382.91;;;8.38;70.82
48095;BME280;33874;52.070;-0.516;2023-02-11T21:31:47;103386.50;;;8.34;70.66
48095;BME280;33874;52.070;-0.516;2023-02-11T21:34:16;103390.87;;;8.29;70.69
48095;BME280;33874;52.070;-0.516;2023-02-11T21:36:44;103394.58;;;8.29;70.99
48095;BME280;33874;52.070;-0.516;2023-02-11T21:39:13;103393.16;;;8.29;70.87
48095;BME280;33874;52.070;-0.516;2023-02-11T21:41:41;103391.04;;;8.30;71.12
48095;BME280;33874;52.070;-0.516;2023-02-11T21:44:10;103387.11;;;8.32;71.22
48095;BME280;33874;52.070;-0.516;2023-02-11T21:46:37;103390.71;;;8.35;71.28
48095;BME280;33874;52.070;-0.516;2023-02-11T21:49:06;103391.17;;;8.36;71.47
48095;BME280;33874;52.070;-0.516;2023-02-11T21:51:34;103390.08;;;8.39;71.45
48095;BME280;33874;52.070;-0.516;2023-02-11T21:54:02;103385.12;;;8.40;71.44
48095;BME280;33874;52.070;-0.516;2023-02-11T21:56:31;103380.53;;;8.41;71.43
48095;BME280;33874;52.070;-0.516;2023-02-11T21:59:00;103381.39;;;8.42;71.29
48095;BME280;33874;52.070;-0.516;2023-02-11T22:01:30;103383.36;;;8.40;71.10
48095;BME280;33874;52.070;-0.516;2023-02-11T22:03:59;103388.75;;;8.36;70.84
48095;BME280;33874;52.070;-0.516;2023-02-11T22:06:29;103387.73;;;8.29;70.64
48095;BME280;33874;52.070;-0.516;2023-02-11T22:09:01;103387.92;;;8.24;70.76
48095;BME280;33874;52.070;-0.516;2023-02-11T22:11:29;103387.13;;;8.21;70.89
48095;BME280;33874;52.070;-0.516;2023-02-11T22:13:57;103390.64;;;8.21;71.10
48095;BME280;33874;52.070;-0.516;2023-02-11T22:16:26;103395.90;;;8.20;71.04
48095;BME280;33874;52.070;-0.516;2023-02-11T22:18:56;103393.09;;;8.21;71.23
48095;BME280;33874;52.070;-0.516;2023-02-11T22:21:25;103390.23;;;8.22;71.16
48095;BME280;33874;52.070;-0.516;2023-02-11T22:23:54;103395.74;;;8.20;71.04
48095;BME280;33874;52.070;-0.516;2023-02-11T22:26:24;103400.22;;;8.17;70.87
48095;BME280;33874;52.070;-0.516;2023-02-11T22:28:53;103401.23;;;8.13;70.99
48095;BME280;33874;52.070;-0.516;2023-02-11T22:31:27;103395.98;;;8.12;71.22
48095;BME280;33874;52.070;-0.516;2023-02-11T22:33:56;103395.42;;;8.13;71.37
48095;BME280;33874;52.070;-0.516;2023-02-11T22:36:33;103398.04;;;8.14;71.35
48095;BME280;33874;52.070;-0.516;2023-02-11T22:39:11;103399.41;;;8.15;71.54
48095;BME280;33874;52.070;-0.516;2023-02-11T22:41:41;103399.23;;;8.09;71.02
48095;BME280;33874;52.070;-0.516;2023-02-11T22:44:09;103398.20;;;8.03;71.11
48095;BME280;33874;52.070;-0.516;2023-02-11T22:46:37;103395.70;;;8.00;71.05
48095;BME280;33874;52.070;-0.516;2023-02-11T22:49:05;103399.05;;;7.99;71.34
48095;BME280;33874;52.070;-0.516;2023-02-11T22:51:34;103401.30;;;8.00;71.43
48095;BME280;33874;52.070;-0.516;2023-02-11T22:54:04;103394.57;;;8.02;71.66
48095;BME280;33874;52.070;-0.516;2023-02-11T22:56:33;103395.04;;;8.04;71.65
48095;BME280;33874;52.070;-0.516;2023-02-11T22:59:04;103396.52;;;8.02;71.56
48095;BME280;33874;52.070;-0.516;2023-02-11T23:01:33;103393.39;;;8.01;71.60
48095;BME280;33874;52.070;-0.516;2023-02-11T23:04:04;103397.23;;;8.01;71.68
48095;BME280;33874;52.070;-0.516;2023-02-11T23:06:33;103390.55;;;8.02;71.73
48095;BME280;33874;52.070;-0.516;2023-02-11T23:09:03;103391.70;;;7.99;71.68
48095;BME280;33874;52.070;-0.516;2023-02-11T23:11:32;103396.27;;;7.98;71.71
48095;BME280;33874;52.070;-0.516;2023-02-11T23:14:01;103391.89;;;7.98;71.81
48095;BME280;33874;52.070;-0.516;2023-02-11T23:16:33;103391.61;;;7.96;71.62
48095;BME280;33874;52.070;-0.516;2023-02-11T23:19:06;103394.15;;;7.93;71.54
48095;BME280;33874;52.070;-0.516;2023-02-11T23:21:36;103393.25;;;7.94;71.97
48095;BME280;33874;52.070;-0.516;2023-02-11T23:24:10;103389.85;;;7.97;72.01
48095;BME280;33874;52.070;-0.516;2023-02-11T23:26:40;103393.78;;;8.00;72.22
48095;BME280;33874;52.070;-0.516;2023-02-11T23:29:09;103391.61;;;8.02;72.17